Pagrindinis puslapis
METAR-TAF:

METAR-TAF

Oro uostai :

Trasa Zeltweg

Zeltweg, Austrija

platuma: 47-12N, ilguma: 014-45E, Aukštis: 677 m

Dabartinis oras

Ataskaita buvo paskelbta 59 minutes, ne 03:50 UTC
Vėjas 3 kt iš Rytų
Temperatūra 15°C
Drėgmė 100%
Slėgis 1009 hPa
Matomumas: 8000 m

METAR: LOXZ 010350Z 09003KT 8000 FEW002ST SCT011ST BKN025SC 15/15 Q1009

Laikas: 06:49 (04:49 UTC)

Prognozė

Ataskaita buvo paskelbta 17 valandos ir 34 minutes, ne 11:15 UTC
Prognozė galioja nuo 31 metu 12 UTC su 31 metu 21 UTC
Vėjas 3 kt nuo kintamojo kryptimis
Matomumas 10 km arba daugiau
Mažai debesys ne aukštis 1000 ft
Išsisklaidę debesys ne aukštis 7000 ft
Su prošvaistėmis ne aukštis 15000 ft

TAF: LOXZ 311115Z 3112/3121 VRB03KT 9999 FEW010 SCT070 BKN150

Orai ataskaitas ir orų prognozės (METAR, TAF).

turimą stotys yra geltonos ir raudonos taškus žemėlapyje.

Perkelti pele per norėdami pamatyti stoties vardą.

Tada spustelėkite, norėdami matyti oro stebėjimo ir prognozės.

Norėdami pakeisti žemėlapį: spustelėkite ant žalios mygtukų su juodo kryžiaus žemyn,; žalią mygtuką su brūkšneliu, jei norite nutolinti; arba žalių rodyklių gretimoms žemėlapius.


METAR-TAF: